Time;durP1;ratioP1;P1;durP2;ratioP2;P2;SDS_P1;SDS_P2;PMS_P1;PMS_P2;Temp;Humidity;BMP_temperature;BMP_pressure;BME280_temperature;BME280_humidity;BME280_pressure;Samples;Min_cycle;Max_cycle;Signal;HPM_P1;HPM_P2
2022/03/03 00:00:08;;;;;;;28.47;14.00;;;;;;;-3.62;69.02;101272.44;4997660;28;20046;-72
2022/03/03 00:02:37;;;;;;;25.00;13.40;;;;;;;-3.66;69.26;101278.22;4996003;28;20046;-72
2022/03/03 00:05:04;;;;;;;27.97;14.30;;;;;;;-3.66;69.06;101275.63;4999799;28;20049;-72
2022/03/03 00:07:29;;;;;;;27.83;15.37;;;;;;;-3.67;69.31;101273.84;4997742;28;20493;-72
2022/03/03 00:09:54;;;;;;;29.87;16.80;;;;;;;-3.66;69.23;101273.06;4998354;28;20043;-72
2022/03/03 00:12:20;;;;;;;29.03;15.27;;;;;;;-3.67;69.39;101263.50;4999182;28;20469;-72
2022/03/03 00:14:45;;;;;;;25.93;14.20;;;;;;;-3.65;69.13;101261.03;4996967;28;20034;-72
2022/03/03 00:17:11;;;;;;;31.40;17.17;;;;;;;-3.69;70.05;101259.06;4999582;28;20056;-72
2022/03/03 00:19:36;;;;;;;29.67;16.60;;;;;;;-3.78;70.88;101255.09;4997895;28;20074;-72
2022/03/03 00:22:02;;;;;;;28.87;16.37;;;;;;;-3.83;71.39;101256.50;4997442;28;20133;-72
2022/03/03 00:24:27;;;;;;;26.80;15.03;;;;;;;-3.83;70.79;101253.03;4999645;28;20083;-72
2022/03/03 00:26:53;;;;;;;25.73;13.40;;;;;;;-3.85;70.14;101246.88;4996702;28;20039;-72
2022/03/03 00:29:18;;;;;;;25.00;14.53;;;;;;;-3.90;70.51;101244.03;4999008;28;20040;-72
2022/03/03 00:31:43;;;;;;;25.83;14.40;;;;;;;-4.01;71.13;101245.94;4995736;28;20033;-73
2022/03/03 00:34:09;;;;;;;30.97;15.73;;;;;;;-4.07;71.65;101242.94;5011495;28;20034;-72
2022/03/03 00:36:34;;;;;;;26.20;13.77;;;;;;;-4.10;71.96;101240.19;5002966;28;20090;-72
2022/03/03 00:39:00;;;;;;;27.57;15.13;;;;;;;-4.09;72.34;101225.59;5020307;28;20039;-72
2022/03/03 00:41:25;;;;;;;34.03;18.00;;;;;;;-4.09;71.77;101221.31;5027820;28;20124;-72
2022/03/03 00:43:51;;;;;;;36.47;17.60;;;;;;;-4.07;72.29;101216.28;5001699;28;20042;-72
2022/03/03 00:46:16;;;;;;;33.47;19.80;;;;;;;-4.03;72.49;101223.44;5001938;28;20049;-72
2022/03/03 00:48:41;;;;;;;40.83;20.30;;;;;;;-4.04;72.50;101216.47;5012988;28;20026;-72
2022/03/03 00:51:07;;;;;;;35.80;19.23;;;;;;;-4.10;73.43;101223.81;5002016;28;20506;-72
2022/03/03 00:53:34;;;;;;;28.03;15.40;;;;;;;-4.15;72.74;101223.53;5001018;28;20411;-72
2022/03/03 00:55:59;;;;;;;33.47;19.07;;;;;;;-4.22;72.66;101234.22;5000503;28;20477;-72
2022/03/03 00:58:25;;;;;;;34.00;19.50;;;;;;;-4.27;73.50;101226.22;5002563;28;20038;-72
2022/03/03 01:00:50;;;;;;;33.00;17.77;;;;;;;-4.25;74.05;101223.72;4996870;28;20062;-72
2022/03/03 01:03:15;;;;;;;34.53;16.80;;;;;;;-4.26;73.50;101227.09;5005242;28;20053;-72
2022/03/03 01:05:41;;;;;;;28.13;16.33;;;;;;;-4.26;72.92;101233.16;5001238;28;20034;-72
2022/03/03 01:08:10;;;;;;;27.20;15.27;;;;;;;-4.24;72.97;101228.09;4999837;28;20392;-73
2022/03/03 01:10:39;;;;;;;27.10;15.90;;;;;;;-4.23;72.66;101233.34;4999650;28;20045;-72
2022/03/03 01:13:05;;;;;;;26.33;14.77;;;;;;;-4.21;72.99;101234.34;5000836;28;20030;-72
2022/03/03 01:15:31;;;;;;;26.90;13.63;;;;;;;-4.19;73.07;101232.75;5001775;28;20091;-72
2022/03/03 01:17:56;;;;;;;28.27;14.53;;;;;;;-4.18;72.79;101229.38;4999412;28;20042;-72
2022/03/03 01:20:21;;;;;;;28.10;15.57;;;;;;;-4.18;73.00;101238.81;5001899;28;20545;-72
2022/03/03 01:22:47;;;;;;;25.93;14.97;;;;;;;-4.18;73.43;101226.78;5000372;28;20042;-72
2022/03/03 01:25:12;;;;;;;36.40;18.43;;;;;;;-4.18;74.56;101225.91;5000797;28;20395;-72
2022/03/03 01:27:38;;;;;;;26.00;14.17;;;;;;;-4.22;73.97;101226.50;5001822;28;20507;-72
2022/03/03 01:30:04;;;;;;;30.67;15.27;;;;;;;-4.26;74.33;101228.00;4999305;28;20514;-72
2022/03/03 01:32:30;;;;;;;29.47;16.00;;;;;;;-4.24;74.06;101222.94;4998303;28;20038;-73
2022/03/03 01:34:55;;;;;;;31.73;15.57;;;;;;;-4.23;74.48;101228.19;5004054;28;20034;-73
2022/03/03 01:37:21;;;;;;;24.73;13.93;;;;;;;-4.22;73.56;101223.91;4999654;28;20042;-73
2022/03/03 01:39:46;;;;;;;25.63;14.20;;;;;;;-4.18;73.91;101231.06;5002041;28;20030;-73
2022/03/03 01:42:14;;;;;;;26.17;13.73;;;;;;;-4.15;73.73;101226.09;4999038;28;20497;-73
2022/03/03 01:44:43;;;;;;;23.60;13.27;;;;;;;-4.11;73.44;101225.50;5000642;28;20527;-73
2022/03/03 01:47:25;;;;;;;20.33;12.13;;;;;;;-4.05;72.84;101232.75;5000734;28;20038;-73
2022/03/03 01:49:53;;;;;;;26.90;13.37;;;;;;;-3.99;72.92;101223.69;5000930;28;20548;-73
2022/03/03 01:52:20;;;;;;;21.60;12.47;;;;;;;-3.92;72.04;101224.09;4998530;28;20498;-72
2022/03/03 01:54:45;;;;;;;27.47;14.37;;;;;;;-3.86;72.47;101225.34;5001490;28;20068;-73
2022/03/03 01:57:11;;;;;;;27.37;13.20;;;;;;;-3.75;72.13;101223.44;4999978;28;20042;-73
2022/03/03 01:59:38;;;;;;;22.53;13.33;;;;;;;-3.68;72.00;101224.75;4999602;28;20069;-73
2022/03/03 02:02:06;;;;;;;22.53;13.33;;;;;;;-3.64;71.56;101224.09;4997551;28;20081;-73
2022/03/03 02:04:32;;;;;;;25.90;13.23;;;;;;;-3.67;71.84;101216.19;5001278;28;20037;-73
2022/03/03 02:06:58;;;;;;;23.90;12.50;;;;;;;-3.68;71.82;101210.16;5000006;28;20119;-73
2022/03/03 02:09:24;;;;;;;20.90;11.40;;;;;;;-3.64;72.32;101209.56;5000890;28;20053;-73
2022/03/03 02:11:50;;;;;;;24.97;12.00;;;;;;;-3.60;71.13;101213.19;5053411;28;20164;-73
2022/03/03 02:14:15;;;;;;;24.50;13.57;;;;;;;-3.68;70.76;101215.31;5000039;28;20038;-73
2022/03/03 02:16:41;;;;;;;26.13;13.37;;;;;;;-3.71;71.67;101212.53;4999261;28;20100;-73
2022/03/03 02:19:06;;;;;;;27.70;13.53;;;;;;;-3.67;71.84;101211.91;5030987;28;20128;-73
2022/03/03 02:21:32;;;;;;;22.77;13.13;;;;;;;-3.63;72.28;101213.91;5007966;28;20073;-73
2022/03/03 02:23:58;;;;;;;25.20;13.60;;;;;;;-3.60;71.58;101198.59;5001443;28;20454;-73
2022/03/03 02:26:24;;;;;;;27.77;15.33;;;;;;;-3.59;71.34;101196.91;4999222;28;20042;-73
2022/03/03 02:28:51;;;;;;;27.70;14.60;;;;;;;-3.60;72.23;101192.56;5014952;28;20041;-72
2022/03/03 02:31:17;;;;;;;29.13;14.47;;;;;;;-3.61;71.42;101190.78;5003077;28;20124;-73
2022/03/03 02:33:42;;;;;;;28.20;15.30;;;;;;;-3.64;72.06;101191.50;4998275;28;20121;-73
2022/03/03 02:36:27;;;;;;;31.47;14.97;;;;;;;-3.69;73.06;101184.25;5000697;28;20054;-73
2022/03/03 02:38:54;;;;;;;28.40;15.47;;;;;;;-3.77;72.38;101186.38;4998275;28;20038;-73
2022/03/03 02:41:21;;;;;;;25.63;14.80;;;;;;;-3.87;72.59;101186.59;4999656;28;20120;-73
2022/03/03 02:43:47;;;;;;;29.97;16.03;;;;;;;-3.95;73.75;101174.91;4995876;28;20125;-73
2022/03/03 02:46:13;;;;;;;25.00;14.40;;;;;;;-3.94;72.93;101168.94;5001083;28;20141;-73
2022/03/03 02:48:39;;;;;;;27.67;16.17;;;;;;;-3.93;72.65;101173.31;4998478;28;20437;-73
2022/03/03 02:51:05;;;;;;;26.10;14.30;;;;;;;-4.00;72.60;101170.34;4999550;28;20121;-73
2022/03/03 02:53:31;;;;;;;24.80;14.40;;;;;;;-4.09;72.95;101172.34;5000053;28;20041;-73
2022/03/03 02:55:58;;;;;;;29.80;15.00;;;;;;;-4.09;72.84;101177.50;4998086;28;20469;-73
2022/03/03 02:58:23;;;;;;;28.57;15.53;;;;;;;-4.10;73.48;101175.72;4997647;28;20038;-73
2022/03/03 03:00:50;;;;;;;26.17;14.53;;;;;;;-4.10;72.75;101160.25;5001957;28;20495;-73
2022/03/03 03:03:17;;;;;;;29.13;15.83;;;;;;;-4.10;72.85;101155.09;5000011;28;20036;-73
2022/03/03 03:05:44;;;;;;;25.43;12.80;;;;;;;-4.10;72.77;101159.38;4997626;28;20071;-73
2022/03/03 03:08:10;;;;;;;25.27;13.40;;;;;;;-4.21;72.49;101154.44;5015577;28;20034;-73
2022/03/03 03:10:36;;;;;;;31.90;18.13;;;;;;;-4.36;75.47;101155.16;4998769;28;20049;-73
2022/03/03 03:13:02;;;;;;;29.40;16.40;;;;;;;-4.43;74.99;101152.19;4999809;28;20037;-73
2022/03/03 03:15:27;;;;;;;27.83;15.63;;;;;;;-4.48;75.28;101162.97;4999377;28;20095;-73
2022/03/03 03:17:52;;;;;;;28.87;14.13;;;;;;;-4.54;74.46;101160.91;5048498;28;20038;-73
2022/03/03 03:20:18;;;;;;;27.93;15.23;;;;;;;-4.59;74.31;101158.81;4999529;28;20038;-73
2022/03/03 03:22:44;;;;;;;29.40;15.13;;;;;;;-4.62;75.10;101149.22;4999018;28;20041;-73
2022/03/03 03:25:11;;;;;;;30.70;17.03;;;;;;;-4.64;74.82;101145.63;5011034;28;20052;-73
2022/03/03 03:27:38;;;;;;;31.53;16.47;;;;;;;-4.63;74.56;101142.28;5009978;28;20045;-73
2022/03/03 03:30:05;;;;;;;33.77;16.40;;;;;;;-4.62;74.97;101144.94;4999675;28;20026;-73
2022/03/03 03:32:30;;;;;;;30.40;17.73;;;;;;;-4.64;75.49;101140.50;4998910;28;20042;-73
2022/03/03 03:34:57;;;;;;;31.83;15.87;;;;;;;-4.64;74.91;101143.06;4997994;28;20049;-73
2022/03/03 03:37:22;;;;;;;32.40;17.33;;;;;;;-4.66;75.38;101143.00;5035484;28;20037;-73
2022/03/03 03:39:47;;;;;;;36.07;18.47;;;;;;;-4.70;75.40;101140.09;5009969;28;20034;-73
2022/03/03 03:42:13;;;;;;;36.37;19.20;;;;;;;-4.78;75.75;101146.44;4994798;28;20077;-73
2022/03/03 03:44:38;;;;;;;32.73;17.63;;;;;;;-4.83;75.38;101143.56;4999438;28;20094;-73
2022/03/03 03:47:05;;;;;;;26.73;14.93;;;;;;;-4.94;74.80;101141.97;5000583;28;20053;-73
2022/03/03 03:49:31;;;;;;;30.50;16.47;;;;;;;-4.96;75.15;101140.97;5001100;28;20045;-73
2022/03/03 03:51:56;;;;;;;31.30;16.47;;;;;;;-4.95;75.25;101142.75;5035913;28;20047;-73
2022/03/03 03:54:21;;;;;;;28.87;15.23;;;;;;;-4.94;75.83;101140.28;4998226;28;20030;-73
2022/03/03 03:56:47;;;;;;;35.27;18.40;;;;;;;-4.95;76.27;101141.09;4999615;28;20116;-73
2022/03/03 03:59:12;;;;;;;31.47;16.30;;;;;;;-4.90;76.46;101136.22;5019728;28;20158;-73
2022/03/03 04:01:38;;;;;;;31.23;16.37;;;;;;;-4.83;76.95;101142.69;4999778;28;20399;-73
2022/03/03 04:04:03;;;;;;;30.47;14.77;;;;;;;-4.78;77.04;101144.75;5004887;28;20784;-73
2022/03/03 04:06:28;;;;;;;28.63;15.13;;;;;;;-4.72;76.55;101142.56;4999002;28;20042;-73
2022/03/03 04:08:54;;;;;;;28.93;15.97;;;;;;;-4.66;76.95;101135.25;5000351;28;20034;-73
2022/03/03 04:11:19;;;;;;;32.90;17.30;;;;;;;-4.64;77.10;101136.25;5000173;28;20095;-73
2022/03/03 04:13:44;;;;;;;32.03;16.70;;;;;;;-4.66;77.25;101144.69;5000400;28;20058;-73
2022/03/03 04:16:10;;;;;;;33.53;16.73;;;;;;;-4.69;77.49;101144.44;5001656;28;20042;-73
2022/03/03 04:18:35;;;;;;;27.57;15.63;;;;;;;-4.67;76.87;101145.44;5002636;28;20038;-73
2022/03/03 04:21:00;;;;;;;27.20;14.77;;;;;;;-4.70;77.04;101134.94;4999918;28;20193;-73
2022/03/03 04:23:25;;;;;;;31.57;16.97;;;;;;;-4.72;77.34;101132.25;5002868;28;20030;-73
2022/03/03 04:25:51;;;;;;;33.07;17.67;;;;;;;-4.72;77.72;101136.53;5001306;28;20073;-73
2022/03/03 04:28:16;;;;;;;33.50;17.17;;;;;;;-4.70;76.78;101137.53;5001270;28;20053;-73
2022/03/03 04:30:41;;;;;;;29.97;15.83;;;;;;;-4.65;76.59;101131.00;5002717;28;20034;-73
2022/03/03 04:33:07;;;;;;;30.43;17.90;;;;;;;-4.65;76.94;101116.44;4999697;28;20507;-73
2022/03/03 04:35:32;;;;;;;37.80;21.20;;;;;;;-4.72;76.77;101118.50;5002509;28;20526;-75
2022/03/03 04:37:57;;;;;;;32.77;18.27;;;;;;;-4.73;76.89;101121.88;5001461;28;20396;-75
2022/03/03 04:40:23;;;;;;;41.60;20.67;;;;;;;-4.72;77.03;101118.50;5000983;28;20084;-75
2022/03/03 04:42:50;;;;;;;37.63;20.73;;;;;;;-4.68;77.38;101111.09;4998874;28;20105;-75
2022/03/03 04:45:15;;;;;;;35.80;19.53;;;;;;;-4.61;76.51;101117.53;5004165;28;20046;-75
2022/03/03 04:47:40;;;;;;;32.87;20.10;;;;;;;-4.56;76.84;101118.69;5001821;28;20049;-73
2022/03/03 04:50:06;;;;;;;36.63;21.10;;;;;;;-4.49;76.89;101119.97;5001568;28;20038;-73
2022/03/03 04:52:32;;;;;;;37.13;20.27;;;;;;;-4.48;75.81;101106.28;5026931;28;20034;-73
2022/03/03 04:54:57;;;;;;;33.50;19.37;;;;;;;-4.48;76.52;101099.47;5058223;28;20110;-72
2022/03/03 04:57:22;;;;;;;35.10;20.50;;;;;;;-4.50;76.81;101098.50;5024457;28;20058;-73
2022/03/03 04:59:47;;;;;;;39.43;20.10;;;;;;;-4.56;76.94;101097.19;5013451;28;20048;-73
2022/03/03 05:02:13;;;;;;;32.93;19.33;;;;;;;-4.58;77.20;101093.66;5005449;28;20140;-73
2022/03/03 05:04:38;;;;;;;38.10;20.03;;;;;;;-4.59;77.02;101089.28;4999668;28;20049;-73
2022/03/03 05:07:03;;;;;;;32.33;18.43;;;;;;;-4.61;75.90;101089.19;5002478;28;20034;-73
2022/03/03 05:09:29;;;;;;;36.47;20.60;;;;;;;-4.63;76.32;101095.94;5000391;28;20056;-73
2022/03/03 05:11:54;;;;;;;36.30;19.03;;;;;;;-4.64;76.41;101094.13;5000570;28;20042;-73
2022/03/03 05:14:19;;;;;;;35.27;18.50;;;;;;;-4.63;76.50;101095.94;4998706;28;20042;-73
2022/03/03 05:16:45;;;;;;;36.03;19.03;;;;;;;-4.61;77.07;101089.19;5014469;28;20056;-73
2022/03/03 05:19:11;;;;;;;37.80;21.50;;;;;;;-4.60;77.02;101080.66;5011841;28;20030;-73
2022/03/03 05:21:37;;;;;;;43.00;23.37;;;;;;;-4.61;76.52;101091.78;4999946;28;20084;-73
2022/03/03 05:24:02;;;;;;;40.13;21.43;;;;;;;-4.67;76.96;101083.63;5000220;28;20053;-73
2022/03/03 05:26:28;;;;;;;36.43;20.43;;;;;;;-4.69;77.70;101082.63;5002017;28;20048;-73
2022/03/03 05:28:53;;;;;;;37.33;19.97;;;;;;;-4.71;77.71;101082.56;4998954;28;20030;-73
2022/03/03 05:31:19;;;;;;;40.37;21.27;;;;;;;-4.71;77.48;101086.81;5006503;28;20030;-73
2022/03/03 05:33:44;;;;;;;38.97;21.13;;;;;;;-4.62;78.33;101089.97;5008945;28;20042;-72
2022/03/03 05:36:10;;;;;;;35.83;19.03;;;;;;;-4.53;78.28;101093.16;5016133;28;20108;-73
2022/03/03 05:38:36;;;;;;;36.83;19.30;;;;;;;-4.47;77.79;101093.53;5014787;28;20038;-73
2022/03/03 05:41:03;;;;;;;38.43;21.10;;;;;;;-4.42;77.92;101096.41;5041069;28;20031;-73
2022/03/03 05:43:29;;;;;;;37.33;21.27;;;;;;;-4.32;77.96;101087.53;5002101;28;20042;-73
2022/03/03 05:45:55;;;;;;;37.20;19.17;;;;;;;-4.20;77.95;101088.31;5010765;28;20356;-73
2022/03/03 05:48:21;;;;;;;34.03;18.67;;;;;;;-4.08;77.89;101068.44;5021193;28;20117;-73
2022/03/03 05:50:47;;;;;;;32.63;19.97;;;;;;;-3.86;78.28;101075.78;5013563;28;20030;-73
2022/03/03 05:53:12;;;;;;;38.87;21.07;;;;;;;-3.69;78.15;101078.47;5015532;28;20087;-73
2022/03/03 05:55:43;;;;;;;34.97;19.70;;;;;;;-3.53;78.04;101078.59;5039855;28;20042;-73
2022/03/03 05:58:12;;;;;;;34.67;18.60;;;;;;;-3.50;77.54;101080.47;5035157;28;20041;-73
2022/03/03 06:00:37;;;;;;;38.20;21.43;;;;;;;-3.57;76.74;101074.06;5034007;28;20058;-73
2022/03/03 06:03:04;;;;;;;40.00;20.77;;;;;;;-3.65;77.05;101072.72;5012798;28;20041;-73
2022/03/03 06:05:30;;;;;;;37.10;20.17;;;;;;;-3.65;77.42;101071.00;5019600;28;20665;-73
2022/03/03 06:08:04;;;;;;;35.70;20.30;;;;;;;-3.59;77.86;101068.81;5039692;28;20408;-73
2022/03/03 06:10:35;;;;;;;34.03;21.77;;;;;;;-3.48;77.92;101066.88;4999522;28;20090;-73
2022/03/03 06:13:21;;;;;;;37.90;20.73;;;;;;;-3.38;77.95;101078.59;4998619;28;20777;-73
2022/03/03 06:15:47;;;;;;;36.23;21.90;;;;;;;-3.33;77.94;101074.59;5001455;28;20049;-73
2022/03/03 06:18:12;;;;;;;40.10;23.27;;;;;;;-3.35;77.77;101069.34;4998943;28;20042;-73
2022/03/03 06:20:39;;;;;;;39.73;21.87;;;;;;;-3.31;77.67;101071.31;5000011;28;20065;-73
2022/03/03 06:23:04;;;;;;;41.27;22.17;;;;;;;-3.30;77.32;101077.38;5000300;28;20130;-73
2022/03/03 06:25:30;;;;;;;36.63;22.17;;;;;;;-3.29;77.21;101079.16;4998361;28;20087;-72
2022/03/03 06:27:56;;;;;;;43.37;21.80;;;;;;;-3.28;77.55;101083.50;5001134;28;20041;-73
2022/03/03 06:30:21;;;;;;;37.43;21.73;;;;;;;-3.25;77.42;101091.41;5000068;28;20030;-73
2022/03/03 06:32:47;;;;;;;41.60;24.63;;;;;;;-3.23;77.78;101092.41;5015642;28;20503;-72
2022/03/03 06:35:12;;;;;;;39.67;22.13;;;;;;;-3.20;77.71;101097.72;5024750;27;20069;-73
2022/03/03 06:37:37;;;;;;;36.70;21.83;;;;;;;-3.19;77.45;101096.97;5006370;28;20117;-73
2022/03/03 06:40:03;;;;;;;40.77;22.80;;;;;;;-3.20;77.54;101099.44;5020588;28;20180;-73
2022/03/03 06:42:29;;;;;;;41.20;22.67;;;;;;;-3.23;77.46;101097.56;5009617;28;20083;-73
2022/03/03 06:44:55;;;;;;;44.87;24.23;;;;;;;-3.24;77.57;101106.13;5012717;28;20046;-73
2022/03/03 06:47:21;;;;;;;45.80;25.20;;;;;;;-3.22;77.85;101099.38;5000491;28;20033;-73
2022/03/03 06:49:47;;;;;;;37.00;22.50;;;;;;;-3.23;78.01;101100.16;5023498;28;20034;-73
2022/03/03 06:52:15;;;;;;;48.90;26.53;;;;;;;-3.22;78.27;101089.03;5025050;28;20046;-73
2022/03/03 06:54:43;;;;;;;43.63;24.80;;;;;;;-3.24;78.60;101085.47;5041976;28;20132;-73
2022/03/03 06:57:09;;;;;;;40.83;25.70;;;;;;;-3.28;78.75;101088.66;5011064;28;20053;-73
2022/03/03 06:59:37;;;;;;;41.50;24.80;;;;;;;-3.19;78.73;101084.03;5022089;28;20046;-73
2022/03/03 07:02:02;;;;;;;44.10;24.37;;;;;;;-3.16;79.31;101089.38;5012092;28;20113;-73
2022/03/03 07:04:29;;;;;;;41.87;24.73;;;;;;;-3.10;78.83;101088.84;4998420;28;20561;-73
2022/03/03 07:06:55;;;;;;;46.17;25.20;;;;;;;-3.02;78.27;101091.88;5033743;28;20039;-73
2022/03/03 07:09:21;;;;;;;43.93;25.73;;;;;;;-2.97;79.07;101078.41;5012478;28;20042;-73
2022/03/03 07:11:48;;;;;;;42.53;25.70;;;;;;;-2.85;78.61;101075.66;4996767;28;20045;-73
2022/03/03 07:14:15;;;;;;;42.37;26.00;;;;;;;-2.76;78.81;101078.72;4996900;28;20047;-73
2022/03/03 07:16:43;;;;;;;44.77;25.30;;;;;;;-2.64;78.79;101075.97;5000444;28;20056;-72
2022/03/03 07:19:30;;;;;;;41.43;25.60;;;;;;;-2.54;79.88;101070.50;5019149;28;20036;-73
2022/03/03 07:21:58;;;;;;;46.03;25.40;;;;;;;-2.44;79.39;101075.38;5014724;28;20500;-73
2022/03/03 07:24:33;;;;;;;40.27;25.07;;;;;;;-2.30;78.90;101072.63;4998284;28;20035;-73
2022/03/03 07:27:04;;;;;;;42.17;26.60;;;;;;;-2.22;78.66;101076.53;4996733;28;20046;-73
2022/03/03 07:29:33;;;;;;;43.93;24.87;;;;;;;-2.10;79.08;101073.69;4998287;28;20041;-73
2022/03/03 07:32:06;;;;;;;40.87;23.97;;;;;;;-2.01;77.99;101077.66;5021649;28;20028;-73
2022/03/03 07:34:34;;;;;;;45.23;26.67;;;;;;;-1.89;78.10;101069.66;5016127;28;20399;-73
2022/03/03 07:37:24;;;;;;;40.90;24.77;;;;;;;-1.83;77.69;101077.75;5000409;28;20026;-73
2022/03/03 07:39:53;;;;;;;46.20;24.23;;;;;;;-1.77;77.86;101067.72;4999740;28;20453;-73
2022/03/03 07:42:19;;;;;;;37.33;22.77;;;;;;;-1.71;77.88;101072.31;5000899;28;20042;-73
2022/03/03 07:44:46;;;;;;;44.03;24.83;;;;;;;-1.63;77.75;101080.47;4997653;28;20046;-73
2022/03/03 07:47:11;;;;;;;38.77;24.37;;;;;;;-1.57;77.07;101075.63;4997266;28;20113;-73
2022/03/03 07:49:38;;;;;;;38.77;24.53;;;;;;;-1.49;77.44;101079.50;5000015;28;20178;-73
2022/03/03 07:52:05;;;;;;;38.80;24.37;;;;;;;-1.40;77.54;101076.47;4999512;28;20042;-73
2022/03/03 07:54:31;;;;;;;52.10;33.27;;;;;;;-1.25;77.11;101091.91;4998556;28;20119;-73
2022/03/03 07:56:59;;;;;;;41.80;25.63;;;;;;;-1.12;76.03;101095.19;4999419;28;20038;-73
2022/03/03 07:59:27;;;;;;;40.57;25.00;;;;;;;-1.01;75.79;101090.53;5001618;28;20044;-73
2022/03/03 08:01:56;;;;;;;41.80;24.73;;;;;;;-0.91;75.79;101095.34;5001038;28;20070;-73
2022/03/03 08:04:28;;;;;;;40.77;25.37;;;;;;;-0.76;74.53;101091.72;4997635;28;20391;-73
2022/03/03 08:06:59;;;;;;;37.53;24.40;;;;;;;-0.64;73.96;101096.63;4997150;28;20039;-73
2022/03/03 08:09:30;;;;;;;39.40;23.70;;;;;;;-0.52;73.60;101087.72;4996903;28;20034;-73
2022/03/03 08:11:55;;;;;;;40.63;25.57;;;;;;;-0.39;73.15;101093.47;4999474;28;20034;-73
2022/03/03 08:14:21;;;;;;;40.87;25.57;;;;;;;-0.26;73.23;101096.72;5026032;28;20609;-73
2022/03/03 08:16:46;;;;;;;41.37;26.60;;;;;;;-0.10;72.48;101097.44;5012197;28;20038;-73
2022/03/03 08:19:14;;;;;;;42.53;25.73;;;;;;;0.11;72.21;101097.53;5034539;28;20048;-73
2022/03/03 08:21:43;;;;;;;40.13;26.00;;;;;;;0.22;72.50;101096.28;5003243;28;20056;-73
2022/03/03 08:24:10;;;;;;;41.80;25.33;;;;;;;0.36;71.43;101092.59;5001666;28;20095;-73
2022/03/03 08:26:37;;;;;;;40.73;24.70;;;;;;;0.51;71.15;101094.09;5007516;28;20041;-73
2022/03/03 08:29:03;;;;;;;42.70;24.90;;;;;;;0.64;70.51;101104.19;5007829;28;20061;-73
2022/03/03 08:31:38;;;;;;;38.20;24.57;;;;;;;0.76;68.89;101102.13;5005217;28;20115;-73
2022/03/03 08:34:12;;;;;;;39.33;25.10;;;;;;;0.93;69.02;101101.94;5002805;28;20042;-73
2022/03/03 08:36:54;;;;;;;38.17;24.07;;;;;;;1.13;69.16;101094.94;5005419;28;20040;-73
2022/03/03 08:39:28;;;;;;;37.35;24.90;;;;;;;1.20;67.13;101094.38;5034374;28;20046;-73
2022/03/03 08:42:02;;;;;;;40.80;25.45;;;;;;;1.34;67.95;101094.94;5008953;28;20116;-73
2022/03/03 08:44:32;;;;;;;38.72;23.70;;;;;;;1.42;67.49;101098.75;4996098;28;20034;-73
2022/03/03 08:46:58;;;;;;;37.55;24.30;;;;;;;1.52;66.81;101100.91;4998326;28;20045;-73
2022/03/03 08:49:33;;;;;;;45.28;23.60;;;;;;;1.59;66.61;101099.41;4998376;28;20500;-73
2022/03/03 08:51:59;;;;;;;37.67;24.98;;;;;;;1.58;67.09;101088.13;4995113;28;20045;-73
2022/03/03 08:54:25;;;;;;;36.25;24.38;;;;;;;1.63;67.07;101090.91;4998240;28;20095;-73
2022/03/03 08:56:50;;;;;;;40.13;24.95;;;;;;;1.64;66.01;101096.16;5001490;28;20038;-73
2022/03/03 08:59:16;;;;;;;38.40;22.95;;;;;;;1.70;66.97;101099.00;5013918;28;20041;-73
2022/03/03 09:01:41;;;;;;;36.17;22.52;;;;;;;1.73;66.67;101096.53;5021946;28;20027;-73
2022/03/03 09:04:07;;;;;;;36.10;24.17;;;;;;;1.84;66.61;101091.72;4999791;28;20581;-73
2022/03/03 09:06:33;;;;;;;43.63;26.23;;;;;;;1.89;66.20;101086.69;5031954;28;20569;-73
2022/03/03 09:08:58;;;;;;;34.63;23.27;;;;;;;2.00;66.78;101080.16;5010069;28;20021;-73
2022/03/03 09:11:23;;;;;;;36.17;22.10;;;;;;;2.10;66.92;101086.63;4998921;28;20038;-73
2022/03/03 09:13:49;;;;;;;33.50;22.45;;;;;;;2.19;66.17;101080.00;4999229;28;20396;-73
2022/03/03 09:16:17;;;;;;;36.60;22.80;;;;;;;2.27;65.80;101080.28;5006459;28;20640;-73
2022/03/03 09:18:44;;;;;;;33.40;21.25;;;;;;;2.32;65.86;101076.13;5019879;28;20060;-73
2022/03/03 09:21:09;;;;;;;43.72;28.08;;;;;;;2.38;66.02;101073.75;5018553;28;20527;-73
2022/03/03 09:23:35;;;;;;;48.30;24.70;;;;;;;2.46;65.32;101080.94;5002535;28;20064;-73
2022/03/03 09:26:00;;;;;;;41.80;22.33;;;;;;;2.53;63.97;101080.34;5000990;28;20033;-73
2022/03/03 09:28:25;;;;;;;38.08;21.83;;;;;;;2.59;63.83;101083.16;5001103;28;20167;-73
2022/03/03 09:30:51;;;;;;;41.95;21.02;;;;;;;2.67;63.72;101075.59;4999202;28;20129;-73
2022/03/03 09:33:16;;;;;;;37.20;22.52;;;;;;;2.76;62.97;101078.53;5002299;28;20112;-73
2022/03/03 09:35:42;;;;;;;32.53;21.23;;;;;;;2.86;63.00;101080.63;4999867;28;20065;-73
2022/03/03 09:38:07;;;;;;;33.80;21.45;;;;;;;2.95;62.66;101067.88;5009324;28;20503;-73
2022/03/03 09:40:33;;;;;;;34.22;21.88;;;;;;;3.03;61.93;101066.41;5019571;28;20030;-73
2022/03/03 09:43:04;;;;;;;32.90;21.67;;;;;;;3.04;62.30;101065.59;5018123;28;20079;-73
2022/03/03 09:45:30;;;;;;;36.83;23.88;;;;;;;3.13;62.14;101064.13;5033816;28;20030;-73
2022/03/03 09:47:58;;;;;;;34.30;22.02;;;;;;;3.23;61.76;101060.97;5012794;28;20537;-73
2022/03/03 09:50:26;;;;;;;37.13;23.25;;;;;;;3.32;61.88;101066.47;5001851;28;20030;-73
2022/03/03 09:52:52;;;;;;;33.45;22.00;;;;;;;3.45;61.39;101052.09;4998999;28;20489;-73
2022/03/03 09:55:18;;;;;;;35.13;23.48;;;;;;;3.58;61.01;101061.19;4999165;28;20613;-73
2022/03/03 09:57:44;;;;;;;33.60;21.92;;;;;;;3.66;60.62;101052.72;4999827;28;20041;-73
2022/03/03 10:00:12;;;;;;;34.30;21.10;;;;;;;3.74;60.67;101056.44;4998533;28;20042;-73
2022/03/03 10:03:03;;;;;;;36.42;21.45;;;;;;;3.85;58.40;101054.19;5003894;28;20038;-73
2022/03/03 10:05:29;;;;;;;40.08;23.10;;;;;;;3.93;58.84;101044.84;5001795;28;20045;-73
2022/03/03 10:07:59;;;;;;;33.88;21.63;;;;;;;4.04;58.86;101047.75;4998650;28;20098;-73
2022/03/03 10:10:25;;;;;;;34.50;20.08;;;;;;;4.12;58.13;101038.41;5001542;28;20132;-73
2022/03/03 10:12:52;;;;;;;31.45;19.17;;;;;;;4.24;58.48;101034.38;4997525;28;20057;-73
2022/03/03 10:15:19;;;;;;;32.67;21.40;;;;;;;4.31;57.31;101039.81;5000002;28;20518;-74
2022/03/03 10:17:45;;;;;;;28.00;18.73;;;;;;;4.43;57.11;101046.19;5001047;28;20045;-73
2022/03/03 10:20:11;;;;;;;32.92;20.35;;;;;;;4.54;55.61;101034.31;4998308;28;20404;-73
2022/03/03 10:22:57;;;;;;;32.47;20.50;;;;;;;4.64;56.02;101035.44;5003544;28;20029;-73
2022/03/03 10:25:38;;;;;;;31.50;19.63;;;;;;;4.69;55.20;101029.50;5000580;28;20034;-73
2022/03/03 10:28:18;;;;;;;37.15;23.25;;;;;;;4.83;56.38;101040.31;4998312;28;20039;-73
2022/03/03 10:30:54;;;;;;;35.53;23.75;;;;;;;4.92;56.06;101037.03;4998847;28;20034;-73
2022/03/03 10:33:22;;;;;;;34.83;22.38;;;;;;;4.94;56.13;101032.72;4999164;28;20069;-73
2022/03/03 10:36:10;;;;;;;36.08;21.95;;;;;;;4.98;55.12;101026.72;4999324;28;20126;-73
2022/03/03 10:39:01;;;;;;;28.83;19.42;;;;;;;5.09;54.14;101027.00;5009822;28;20041;-73
2022/03/03 10:41:41;;;;;;;31.33;21.10;;;;;;;5.16;54.22;101026.25;5010648;28;20085;-73
2022/03/03 10:44:20;;;;;;;30.70;20.17;;;;;;;5.26;53.87;101023.91;5023190;28;20443;-73
2022/03/03 10:47:04;;;;;;;31.10;21.35;;;;;;;5.37;53.84;101018.94;5026201;28;20483;-73
2022/03/03 10:49:30;;;;;;;36.65;25.00;;;;;;;5.47;54.38;101023.50;5018229;28;20044;-73
2022/03/03 10:52:12;;;;;;;42.35;29.05;;;;;;;5.54;53.45;101027.16;5038380;28;20583;-73
2022/03/03 10:55:12;;;;;;;39.70;25.77;;;;;;;5.67;55.97;101017.84;5006778;28;20038;-74
2022/03/03 10:57:44;;;;;;;34.28;23.35;;;;;;;5.83;53.13;101019.03;4995739;28;20074;-73
2022/03/03 11:00:10;;;;;;;;;;;;;;;5.86;52.00;101019.09;5009218;28;20141;-74
2022/03/03 11:02:37;;;;;;;32.90;20.90;;;;;;;6.00;53.01;101016.78;5020952;28;20008;-73
2022/03/03 11:05:03;;;;;;;34.70;22.05;;;;;;;6.12;51.33;101017.03;5034730;28;20096;-74
2022/03/03 11:07:29;;;;;;;32.45;20.67;;;;;;;6.11;51.50;101013.53;4997846;28;20045;-73
2022/03/03 11:09:55;;;;;;;32.20;21.83;;;;;;;6.09;51.37;101006.50;5053844;28;20024;-73
2022/03/03 11:12:21;;;;;;;34.33;22.30;;;;;;;6.05;51.37;101000.34;5020805;28;20049;-73